createdAt,value
2023-02-04T00:00:02.071Z,98591.84
2023-02-04T00:02:47.190Z,98592.13
2023-02-04T00:05:32.404Z,98588.84
2023-02-04T00:08:17.100Z,98584.91
2023-02-04T00:11:01.863Z,98597.44
2023-02-04T00:13:47.102Z,98596.66
2023-02-04T00:16:32.288Z,98587.53
2023-02-04T00:19:17.376Z,98583.16
2023-02-04T00:22:03.243Z,98580.25
2023-02-04T00:24:49.994Z,98575.59
2023-02-04T00:27:34.672Z,98580.03
2023-02-04T00:30:19.619Z,98577.22
2023-02-04T00:33:04.600Z,98574.31
2023-02-04T00:35:49.164Z,98582.47
2023-02-04T00:38:34.262Z,98584.41
2023-02-04T00:41:19.161Z,98578.31
2023-02-04T00:44:04.319Z,98578.69
2023-02-04T00:46:49.061Z,98577.31
2023-02-04T00:49:33.926Z,98570.63
2023-02-04T00:52:18.704Z,98576.66
2023-02-04T00:55:04.195Z,98581.09
2023-02-04T00:57:49.441Z,98577.22
2023-02-04T01:00:34.210Z,98576.16
2023-02-04T01:03:19.265Z,98575.88
2023-02-04T01:06:03.983Z,98573.06
2023-02-04T01:08:48.783Z,98573.06
2023-02-04T01:11:34.266Z,98573.41
2023-02-04T01:14:19.832Z,98586.47
2023-02-04T01:17:04.628Z,98595.88
2023-02-04T01:19:49.640Z,98586.47
2023-02-04T01:22:34.750Z,98589.91
2023-02-04T01:25:20.047Z,98592.56
2023-02-04T01:28:04.845Z,98591.13
2023-02-04T01:30:49.710Z,98605.44
2023-02-04T01:33:35.070Z,98604.03
2023-02-04T01:36:21.473Z,98600.84
2023-02-04T01:39:06.165Z,98590.44
2023-02-04T01:41:51.590Z,98596.09
2023-02-04T01:44:37.529Z,98601.78
2023-02-04T01:47:23.070Z,98598.03
2023-02-04T01:50:12.498Z,98601.84
2023-02-04T01:52:57.948Z,98605.81
2023-02-04T01:55:42.658Z,98602.03
2023-02-04T01:58:31.701Z,98599.25
2023-02-04T02:01:36.140Z,98598.97
2023-02-04T02:04:30.498Z,98606.34
2023-02-04T02:07:15.397Z,98603.69
2023-02-04T02:10:01.176Z,98609.88
2023-02-04T02:12:48.178Z,98606.28
2023-02-04T02:15:33.262Z,98604.69
2023-02-04T02:18:18.252Z,98606.75
2023-02-04T02:21:08.132Z,98610.56
2023-02-04T02:23:56.767Z,98604.72
2023-02-04T02:26:42.990Z,98611.34
2023-02-04T02:29:28.739Z,98618.44
2023-02-04T02:32:16.106Z,98618.28
2023-02-04T02:35:01.260Z,98609.94
2023-02-04T02:37:46.901Z,98612.00
2023-02-04T02:40:32.261Z,98616.88
2023-02-04T02:43:23.579Z,98623.31
2023-02-04T02:46:08.527Z,98627.88
2023-02-04T02:48:53.238Z,98629.31
2023-02-04T02:51:38.195Z,98628.34
2023-02-04T02:54:25.267Z,98628.22
2023-02-04T02:57:18.577Z,98633.09
2023-02-04T03:00:55.135Z,98638.91
2023-02-04T03:03:51.232Z,98632.31
2023-02-04T03:06:36.351Z,98632.75
2023-02-04T03:09:22.540Z,98632.13
2023-02-04T03:12:07.748Z,98633.03
2023-02-04T03:14:53.864Z,98637.56
2023-02-04T03:17:39.252Z,98639.31
2023-02-04T03:20:26.980Z,98642.59
2023-02-04T03:23:12.219Z,98641.97
2023-02-04T03:25:59.653Z,98646.34
2023-02-04T03:28:44.287Z,98638.00
2023-02-04T03:31:29.342Z,98639.72
2023-02-04T03:34:14.668Z,98640.03
2023-02-04T03:36:59.351Z,98649.94
2023-02-04T03:39:43.975Z,98654.97
2023-02-04T03:42:29.009Z,98643.94
2023-02-04T03:45:13.708Z,98648.81
2023-02-04T03:47:58.550Z,98650.69
2023-02-04T03:50:43.630Z,98657.28
2023-02-04T03:53:28.283Z,98648.28
2023-02-04T03:56:13.362Z,98656.91
2023-02-04T03:58:58.379Z,98652.69
2023-02-04T04:01:43.362Z,98663.81
2023-02-04T04:04:28.099Z,98655.66
2023-02-04T04:07:13.069Z,98662.38
2023-02-04T04:09:58.105Z,98655.81
2023-02-04T04:12:43.181Z,98664.25
2023-02-04T04:15:28.083Z,98669.28
2023-02-04T04:18:13.033Z,98670.22
2023-02-04T04:20:59.012Z,98675.53
2023-02-04T04:23:43.898Z,98679.13
2023-02-04T04:26:28.572Z,98671.75
2023-02-04T04:29:13.542Z,98675.97
2023-02-04T04:31:58.595Z,98688.69
2023-02-04T04:34:43.552Z,98685.53
2023-02-04T04:37:28.704Z,98686.31
2023-02-04T04:40:14.168Z,98680.78
2023-02-04T04:42:59.123Z,98688.06
2023-02-04T04:45:44.099Z,98697.50
2023-02-04T04:48:28.552Z,98695.94
2023-02-04T04:51:13.616Z,98703.06
2023-02-04T04:53:59.309Z,98706.38
2023-02-04T04:56:44.428Z,98710.31
2023-02-04T04:59:29.113Z,98714.75
2023-02-04T05:02:13.984Z,98715.91
2023-02-04T05:04:59.157Z,98731.06
2023-02-04T05:07:43.965Z,98729.69
2023-02-04T05:10:28.996Z,98719.06
2023-02-04T05:13:13.822Z,98726.63
2023-02-04T05:15:58.872Z,98733.88
2023-02-04T05:18:44.186Z,98740.47
2023-02-04T05:21:29.308Z,98734.53
2023-02-04T05:24:14.461Z,98745.09
2023-02-04T05:26:59.083Z,98737.53
2023-02-04T05:29:44.053Z,98748.25
2023-02-04T05:32:28.886Z,98752.03
2023-02-04T05:35:13.920Z,98747.66
2023-02-04T05:37:58.761Z,98759.16
2023-02-04T05:40:43.620Z,98770.69
2023-02-04T05:43:28.345Z,98765.78
2023-02-04T05:46:13.436Z,98768.94
2023-02-04T05:48:58.494Z,98778.88
2023-02-04T05:51:43.784Z,98773.69
2023-02-04T05:54:28.375Z,98781.09
2023-02-04T05:57:12.814Z,98789.75
2023-02-04T05:59:58.115Z,98795.94
2023-02-04T06:02:42.944Z,98793.94
2023-02-04T06:05:27.980Z,98801.72
2023-02-04T06:08:15.247Z,98807.09
2023-02-04T06:10:59.823Z,98814.72
2023-02-04T06:13:44.835Z,98815.88
2023-02-04T06:16:29.720Z,98824.13
2023-02-04T06:19:14.446Z,98820.75
2023-02-04T06:21:59.385Z,98828.19
2023-02-04T06:24:45.153Z,98829.19
2023-02-04T06:27:31.280Z,98836.31
2023-02-04T06:30:16.805Z,98845.13
2023-02-04T06:33:01.712Z,98847.06
2023-02-04T06:35:47.030Z,98851.66
2023-02-04T06:38:31.634Z,98852.94
2023-02-04T06:41:16.163Z,98854.09
2023-02-04T06:44:01.052Z,98865.72
2023-02-04T06:46:45.674Z,98866.88
2023-02-04T06:49:30.539Z,98869.09
2023-02-04T06:52:15.073Z,98872.44
2023-02-04T06:55:00.078Z,98872.59
2023-02-04T06:57:44.918Z,98876.25
2023-02-04T07:00:30.864Z,98874.34
2023-02-04T07:03:16.167Z,98874.72
2023-02-04T07:06:01.062Z,98882.75
2023-02-04T07:08:46.858Z,98875.81
2023-02-04T07:11:31.862Z,98886.09
2023-02-04T07:14:18.153Z,98886.09
2023-02-04T07:17:03.252Z,98887.06
2023-02-04T07:19:47.716Z,98886.94
2023-02-04T07:22:35.621Z,98891.19
2023-02-04T07:25:20.290Z,98899.53
2023-02-04T07:28:05.618Z,98904.63
2023-02-04T07:30:51.054Z,98904.97
2023-02-04T07:33:36.235Z,98912.75
2023-02-04T07:36:21.384Z,98908.97
2023-02-04T07:39:06.790Z,98919.44
2023-02-04T07:41:51.553Z,98919.91
2023-02-04T07:44:41.587Z,98929.72
2023-02-04T07:47:26.496Z,98925.13
2023-02-04T07:50:11.266Z,98924.97
2023-02-04T07:52:56.150Z,98928.75
2023-02-04T07:55:40.864Z,98923.88
2023-02-04T07:58:25.699Z,98931.91
2023-02-04T08:01:10.175Z,98921.34
2023-02-04T08:03:55.569Z,98927.50
2023-02-04T08:06:40.678Z,98931.75
2023-02-04T08:09:26.599Z,98948.47
2023-02-04T08:12:11.362Z,98955.56
2023-02-04T08:14:56.117Z,98960.28
2023-02-04T08:17:40.900Z,98965.31
2023-02-04T08:20:25.722Z,98974.50
2023-02-04T08:23:11.182Z,98976.81
2023-02-04T08:25:55.790Z,98969.56
2023-02-04T08:28:41.055Z,98970.72
2023-02-04T08:31:26.018Z,98978.84
2023-02-04T08:34:10.794Z,98983.75
2023-02-04T08:36:55.474Z,98979.97
2023-02-04T08:39:45.659Z,98987.88
2023-02-04T08:42:30.415Z,98980.56
2023-02-04T08:45:15.417Z,98985.13
2023-02-04T08:48:00.208Z,98985.53
2023-02-04T08:50:45.005Z,98982.78
2023-02-04T08:53:29.501Z,98984.63
2023-02-04T08:56:19.790Z,98989.72
2023-02-04T08:59:04.552Z,98994.19
2023-02-04T09:01:51.885Z,99004.19
2023-02-04T09:04:36.819Z,99001.56
2023-02-04T09:07:21.937Z,99000.22
2023-02-04T09:10:07.074Z,98993.13
2023-02-04T09:12:55.379Z,99008.66
2023-02-04T09:15:40.339Z,99005.13
2023-02-04T09:18:25.580Z,99021.13
2023-02-04T09:21:10.435Z,99027.41
2023-02-04T09:23:55.557Z,99032.97
2023-02-04T09:26:40.382Z,99026.94
2023-02-04T09:29:25.401Z,99040.19
2023-02-04T09:32:10.630Z,99048.81
2023-02-04T09:34:55.367Z,99050.59
2023-02-04T09:37:40.350Z,99054.72
2023-02-04T09:40:28.219Z,99060.63
2023-02-04T09:43:17.957Z,99062.31
2023-02-04T09:46:03.504Z,99064.00
2023-02-04T09:48:49.498Z,99074.44
2023-02-04T09:51:35.448Z,99066.53
2023-02-04T09:54:22.182Z,99069.22
2023-02-04T09:57:33.293Z,99079.66
2023-02-04T10:00:27.336Z,99080.50
2023-02-04T10:03:16.489Z,99080.72
2023-02-04T10:06:01.003Z,99074.38
2023-02-04T10:08:47.973Z,99082.59
2023-02-04T10:11:37.008Z,99085.78
2023-02-04T10:14:23.162Z,99097.66
2023-02-04T10:17:09.499Z,99096.22
2023-02-04T10:19:54.720Z,99104.00
2023-02-04T10:22:39.690Z,99113.97
2023-02-04T10:25:25.760Z,99112.09
2023-02-04T10:28:10.748Z,99109.09
2023-02-04T10:30:55.548Z,99119.53
2023-02-04T10:33:40.566Z,99123.28
2023-02-04T10:36:25.660Z,99119.00
2023-02-04T10:39:16.260Z,99132.13
2023-02-04T10:42:01.257Z,99130.81
2023-02-04T10:44:46.910Z,99127.06
2023-02-04T10:47:31.923Z,99127.50
2023-02-04T10:50:26.451Z,99131.31
2023-02-04T10:53:33.601Z,99131.41
2023-02-04T10:56:21.204Z,99142.94
2023-02-04T10:59:20.464Z,99140.22
2023-02-04T11:02:34.335Z,99142.09
2023-02-04T11:05:21.913Z,99149.00
2023-02-04T11:08:33.530Z,99148.69
2023-02-04T11:11:21.020Z,99150.97
2023-02-04T11:14:18.407Z,99162.50
2023-02-04T11:17:02.990Z,99167.13
2023-02-04T11:19:50.022Z,99163.00
2023-02-04T11:22:53.244Z,99168.16
2023-02-04T11:25:39.806Z,99156.22
2023-02-04T11:28:26.022Z,99169.97
2023-02-04T11:31:34.050Z,99167.44
2023-02-04T11:34:18.812Z,99165.41
2023-02-04T11:37:04.405Z,99177.50
2023-02-04T11:39:50.317Z,99168.94
2023-02-04T11:42:41.443Z,99169.88
2023-02-04T11:45:29.216Z,99174.41
2023-02-04T11:48:17.562Z,99180.28
2023-02-04T11:51:10.801Z,99176.09
2023-02-04T11:53:55.996Z,99181.22
2023-02-04T11:56:40.846Z,99181.69
2023-02-04T11:59:26.004Z,99181.38
2023-02-04T12:02:20.157Z,99187.00
2023-02-04T12:05:11.851Z,99186.16
2023-02-04T12:07:57.026Z,99181.81
2023-02-04T12:11:10.687Z,99192.59
2023-02-04T12:13:57.895Z,99196.09
2023-02-04T12:16:47.404Z,99202.72
2023-02-04T12:19:32.206Z,99209.22
2023-02-04T12:22:16.897Z,99219.22
2023-02-04T12:25:01.332Z,99214.97
2023-02-04T12:27:46.223Z,99215.91
2023-02-04T12:30:30.914Z,99215.72
2023-02-04T12:33:15.806Z,99220.75
2023-02-04T12:36:01.576Z,99215.66
2023-02-04T12:38:48.535Z,99214.25
2023-02-04T12:41:33.398Z,99224.72
2023-02-04T12:44:18.497Z,99227.28
2023-02-04T12:47:04.343Z,99233.13
2023-02-04T12:49:49.355Z,99219.25
2023-02-04T12:52:36.340Z,99228.91
2023-02-04T12:55:22.540Z,99238.44
2023-02-04T12:58:07.624Z,99240.19
2023-02-04T13:00:52.216Z,99246.19
2023-02-04T13:03:37.184Z,99249.31
2023-02-04T13:06:21.787Z,99251.63
2023-02-04T13:09:06.488Z,99257.31
2023-02-04T13:11:51.455Z,99259.97
2023-02-04T13:14:36.242Z,99262.78
2023-02-04T13:17:21.032Z,99264.22
2023-02-04T13:20:06.586Z,99263.75
2023-02-04T13:22:51.580Z,99263.25
2023-02-04T13:25:36.484Z,99268.34
2023-02-04T13:28:21.188Z,99273.44
2023-02-04T13:31:06.556Z,99275.38
2023-02-04T13:33:51.621Z,99275.03
2023-02-04T13:36:36.375Z,99275.03
2023-02-04T13:39:21.447Z,99272.19
2023-02-04T13:42:06.849Z,99287.53
2023-02-04T13:44:51.432Z,99280.38
2023-02-04T13:47:36.173Z,99288.75
2023-02-04T13:50:20.737Z,99278.91
2023-02-04T13:53:06.269Z,99299.91
2023-02-04T13:55:50.706Z,99304.06
2023-02-04T13:58:35.523Z,99305.41
2023-02-04T14:01:20.350Z,99301.72
2023-02-04T14:04:05.248Z,99306.31
2023-02-04T14:06:49.868Z,99314.47
2023-02-04T14:09:34.789Z,99314.63
2023-02-04T14:12:19.903Z,99318.22
2023-02-04T14:15:04.898Z,99315.03
2023-02-04T14:17:49.955Z,99320.91
2023-02-04T14:20:35.597Z,99319.63
2023-02-04T14:23:20.663Z,99317.66
2023-02-04T14:26:05.642Z,99322.72
2023-02-04T14:28:50.339Z,99333.28
2023-02-04T14:31:35.942Z,99327.53
2023-02-04T14:34:20.743Z,99322.94
2023-02-04T14:37:05.691Z,99332.25
2023-02-04T14:39:50.702Z,99339.06
2023-02-04T14:42:36.718Z,99335.06
2023-02-04T14:45:21.698Z,99335.50
2023-02-04T14:48:07.747Z,99332.78
2023-02-04T14:50:53.160Z,99339.66
2023-02-04T14:53:40.949Z,99344.88
2023-02-04T14:56:27.259Z,99347.97
2023-02-04T14:59:12.449Z,99346.03
2023-02-04T15:01:58.099Z,99342.63
2023-02-04T15:04:44.025Z,99347.88
2023-02-04T15:07:28.931Z,99361.44
2023-02-04T15:10:15.298Z,99365.03
2023-02-04T15:13:00.344Z,99364.66
2023-02-04T15:15:45.509Z,99373.66
2023-02-04T15:18:31.962Z,99379.25
2023-02-04T15:21:17.295Z,99385.38
2023-02-04T15:24:02.257Z,99382.19
2023-02-04T15:26:46.810Z,99387.50
2023-02-04T15:29:32.233Z,99397.34
2023-02-04T15:32:17.390Z,99407.81
2023-02-04T15:35:02.419Z,99405.50
2023-02-04T15:37:47.724Z,99422.06
2023-02-04T15:40:32.453Z,99413.69
2023-02-04T15:43:17.168Z,99420.81
2023-02-04T15:46:02.304Z,99425.50
2023-02-04T15:48:48.353Z,99425.69
2023-02-04T15:51:33.598Z,99429.34
2023-02-04T15:54:18.350Z,99435.75
2023-02-04T15:57:03.641Z,99438.41
2023-02-04T15:59:48.113Z,99447.28
2023-02-04T16:02:32.850Z,99454.72
2023-02-04T16:05:17.715Z,99455.09
2023-02-04T16:08:02.801Z,99460.66
2023-02-04T16:10:47.724Z,99463.97
2023-02-04T16:13:32.920Z,99464.25
2023-02-04T16:16:17.934Z,99476.38
2023-02-04T16:19:02.841Z,99472.03
2023-02-04T16:21:47.695Z,99473.38
2023-02-04T16:24:33.284Z,99477.06
2023-02-04T16:27:18.704Z,99480.66
2023-02-04T16:30:05.354Z,99487.31
2023-02-04T16:32:50.355Z,99484.16
2023-02-04T16:35:55.385Z,99484.78
2023-02-04T16:38:42.628Z,99488.88
2023-02-04T16:41:27.354Z,99493.03
2023-02-04T16:44:12.235Z,99494.09
2023-02-04T16:46:57.124Z,99498.34
2023-02-04T16:49:44.264Z,99497.03
2023-02-04T16:52:30.575Z,99497.81
2023-02-04T16:55:15.151Z,99503.25
2023-02-04T16:58:00.036Z,99494.88
2023-02-04T17:00:45.276Z,99514.16
2023-02-04T17:03:29.779Z,99510.31
2023-02-04T17:06:15.876Z,99500.75
2023-02-04T17:09:01.051Z,99499.03
2023-02-04T17:11:45.612Z,99519.63
2023-02-04T17:14:30.170Z,99516.56
2023-02-04T17:17:15.297Z,99515.75
2023-02-04T17:19:59.854Z,99518.56
2023-02-04T17:22:44.677Z,99515.09
2023-02-04T17:25:29.366Z,99519.50
2023-02-04T17:28:14.298Z,99535.00
2023-02-04T17:30:59.298Z,99523.72
2023-02-04T17:33:44.080Z,99535.13
2023-02-04T17:36:29.615Z,99530.75
2023-02-04T17:39:14.256Z,99535.94
2023-02-04T17:41:59.206Z,99544.97
2023-02-04T17:44:43.674Z,99535.78
2023-02-04T17:47:28.663Z,99555.31
2023-02-04T17:50:13.842Z,99551.75
2023-02-04T17:52:58.759Z,99551.06
2023-02-04T17:55:43.764Z,99554.38
2023-02-04T17:58:35.580Z,99564.38
2023-02-04T18:01:21.505Z,99566.88
2023-02-04T18:04:12.159Z,99579.09
2023-02-04T18:06:56.987Z,99572.47
2023-02-04T18:09:42.495Z,99581.09
2023-02-04T18:12:27.421Z,99591.03
2023-02-04T18:15:28.174Z,99588.66
2023-02-04T18:18:23.526Z,99608.84
2023-02-04T18:21:28.702Z,99602.03
2023-02-04T18:24:17.262Z,99605.88
2023-02-04T18:27:24.648Z,99607.09
2023-02-04T18:30:20.725Z,99605.22
2023-02-04T18:33:21.473Z,99604.41
2023-02-04T18:36:11.086Z,99605.34
2023-02-04T18:38:56.039Z,99607.47
2023-02-04T18:41:42.966Z,99614.91
2023-02-04T18:44:31.833Z,99610.81
2023-02-04T18:47:31.627Z,99606.53
2023-02-04T18:50:22.822Z,99617.44
2023-02-04T18:53:28.173Z,99621.00
2023-02-04T18:56:15.919Z,99620.34
2023-02-04T18:59:01.027Z,99619.94
2023-02-04T19:01:47.167Z,99627.38
2023-02-04T19:04:33.022Z,99628.69
2023-02-04T19:07:17.826Z,99638.75
2023-02-04T19:10:25.188Z,99632.81
2023-02-04T19:13:38.988Z,99637.31
2023-02-04T19:16:26.380Z,99630.28
2023-02-04T19:19:48.427Z,99643.41
2023-02-04T19:22:47.290Z,99641.69
2023-02-04T19:25:35.075Z,99645.91
2023-02-04T19:28:37.095Z,99645.13
2023-02-04T19:31:22.165Z,99642.47
2023-02-04T19:34:22.969Z,99642.72
2023-02-04T19:37:26.341Z,99647.22
2023-02-04T19:40:26.167Z,99657.53
2023-02-04T19:43:37.091Z,99656.47
2023-02-04T19:46:24.615Z,99665.75
2023-02-04T19:49:27.963Z,99675.81
2023-02-04T19:52:31.626Z,99675.25
2023-02-04T19:55:23.772Z,99682.28
2023-02-04T19:58:36.486Z,99671.81
2023-02-04T20:01:21.951Z,99671.91
2023-02-04T20:04:16.893Z,99671.09
2023-02-04T20:07:01.970Z,99682.13
2023-02-04T20:09:46.917Z,99683.41
2023-02-04T20:12:31.977Z,99677.56
2023-02-04T20:15:19.845Z,99686.84
2023-02-04T20:18:19.277Z,99694.53
2023-02-04T20:21:11.104Z,99696.63
2023-02-04T20:23:55.905Z,99699.41
2023-02-04T20:26:40.995Z,99702.81
2023-02-04T20:29:25.636Z,99709.47
2023-02-04T20:32:27.698Z,99708.81
2023-02-04T20:35:12.684Z,99717.03
2023-02-04T20:37:58.858Z,99709.72
2023-02-04T20:40:46.128Z,99706.53
2023-02-04T20:43:34.072Z,99708.25
2023-02-04T20:46:24.932Z,99707.44
2023-02-04T20:49:22.213Z,99715.00
2023-02-04T20:52:27.059Z,99713.19
2023-02-04T20:55:28.982Z,99727.34
2023-02-04T20:58:18.519Z,99719.78
2023-02-04T21:01:16.234Z,99726.53
2023-02-04T21:04:15.318Z,99724.03
2023-02-04T21:07:05.983Z,99726.78
2023-02-04T21:09:51.094Z,99738.59
2023-02-04T21:12:35.678Z,99738.03
2023-02-04T21:15:20.618Z,99740.69
2023-02-04T21:18:05.793Z,99737.22
2023-02-04T21:20:50.663Z,99745.72
2023-02-04T21:23:36.436Z,99742.25
2023-02-04T21:26:20.993Z,99744.91
2023-02-04T21:29:06.143Z,99754.03
2023-02-04T21:31:52.001Z,99753.28
2023-02-04T21:34:37.280Z,99756.56
2023-02-04T21:37:21.994Z,99753.00
2023-02-04T21:40:07.313Z,99749.81
2023-02-04T21:42:52.079Z,99752.03
2023-02-04T21:45:37.378Z,99760.50
2023-02-04T21:48:22.454Z,99753.09
2023-02-04T21:51:07.264Z,99755.84
2023-02-04T21:53:52.237Z,99756.75
2023-02-04T21:56:37.378Z,99757.69
2023-02-04T21:59:24.507Z,99754.13
2023-02-04T22:02:09.210Z,99762.72
2023-02-04T22:04:54.047Z,99760.19
2023-02-04T22:07:39.844Z,99766.72
2023-02-04T22:10:25.188Z,99770.00
2023-02-04T22:13:28.515Z,99772.53
2023-02-04T22:16:13.527Z,99774.25
2023-02-04T22:18:58.519Z,99775.84
2023-02-04T22:21:43.500Z,99772.03
2023-02-04T22:24:28.487Z,99771.38
2023-02-04T22:27:13.482Z,99776.97
2023-02-04T22:30:01.867Z,99774.47
2023-02-04T22:32:46.694Z,99773.91
2023-02-04T22:35:34.387Z,99782.47
2023-02-04T22:38:20.438Z,99780.88
2023-02-04T22:41:06.484Z,99778.50
2023-02-04T22:43:51.195Z,99778.97
2023-02-04T22:46:36.217Z,99789.28
2023-02-04T22:49:21.159Z,99788.97
2023-02-04T22:52:06.441Z,99790.09
2023-02-04T22:54:52.068Z,99791.38
2023-02-04T22:57:36.992Z,99795.53
2023-02-04T23:00:21.778Z,99807.22
2023-02-04T23:03:06.758Z,99800.13
2023-02-04T23:05:51.634Z,99794.66
2023-02-04T23:08:36.647Z,99803.56
2023-02-04T23:11:22.585Z,99805.38
2023-02-04T23:14:07.380Z,99804.78
2023-02-04T23:16:53.245Z,99803.28
2023-02-04T23:19:38.650Z,99804.28
2023-02-04T23:22:23.433Z,99802.22
2023-02-04T23:25:08.477Z,99803.84
2023-02-04T23:27:53.406Z,99809.53
2023-02-04T23:30:38.591Z,99797.84
2023-02-04T23:33:23.263Z,99801.41
2023-02-04T23:36:08.513Z,99803.25
2023-02-04T23:38:53.300Z,99795.56
2023-02-04T23:41:38.243Z,99795.72
2023-02-04T23:44:22.814Z,99814.66
2023-02-04T23:47:07.753Z,99808.72
2023-02-04T23:49:52.372Z,99807.03
2023-02-04T23:52:37.385Z,99806.78
2023-02-04T23:55:22.394Z,99807.69
2023-02-04T23:58:07.249Z,99812.97
